Terminal Aerodrome Forecast
Issued by NWS Spokane, WA

Home | Current Version | Previous Version | Text Only | Print | Product List | Glossary On
Versions: 1 2 3 4 5 6 7 8 9 10 11 12 13 14 15 16 17 18 19 20 21 22 23 24 25 26 27 28 29 30 31 32
000
FTUS46 KOTX 161720
TAFLWS
TAF
KLWS 161720Z 1618/1718 15005KT P6SM -RA BKN050 OVC070
     FM162200 19005KT P6SM SCT070 BKN120
     FM170100 13004KT P6SM FEW040 SCT150
     FM171200 09009KT P6SM FEW030 SCT100 BKN200=

USA.gov is the U.S. government's official web portal to all federal, state and local government web resources and services.